Eagle Arrow — 3FJA2 — position and weather

sailwx.info

Track history (hours):
 
Tides and Currents Weather Stations Pressure Air Temp Water Temp Dewpoint Dewpoint Depression Visibility Wind Speed Wind Dir Waves Ship Positions

Eagle Arrow

Last reported at 2017-Oct-17 05:29 UTC. Time now 2017-Oct-17 05:48 UTC.
Position N 49°08' W 123°51'.

Length 199 m; draft 7.1 m.

Type: Cargo ship. MMSI: 353414000.

Date/timePositionNaut miles runAvg speedWind from/ knotsBaromVisibWave heightAir tempDewpointWater temp
2017-Oct-17 05:29N 49°08' W 123°51'0 0.0
2017-Oct-17 04:56N 49°08' W 123°51'0 0.0
2017-Oct-17 04:29N 49°08' W 123°51'0 0.0
2017-Oct-17 03:59N 49°08' W 123°51'0 0.0
2017-Oct-17 02:59N 49°08' W 123°51'0 0.0
2017-Oct-17 02:29N 49°08' W 123°51'0 0.0
2017-Oct-17 01:59N 49°08' W 123°51'0 0.0
2017-Oct-17 01:23N 49°08' W 123°51'0 0.0
2017-Oct-17 00:59N 49°08' W 123°51'0 0.0
2017-Oct-17 00:29N 49°08' W 123°51'0 0.0
2017-Oct-16 23:59N 49°08' W 123°51'0 0.0
2017-Oct-16 23:29N 49°08' W 123°51'0 0.0
2017-Oct-16 22:35N 49°08' W 123°51'0 0.0
2017-Oct-16 22:29N 49°08' W 123°51'0 0.0
2017-Oct-16 21:59N 49°08' W 123°51'0 1.0
2017-Oct-16 21:30N 49°09' W 123°51'2 3.8
2017-Oct-16 21:00N 49°10' W 123°53'4 8.3
2017-Oct-16 20:30N 49°13' W 123°49'714.5
2017-Oct-16 20:00N 49°12' W 123°38'815.2
2017-Oct-16 19:30N 49°07' W 123°28'715.0
2017-Oct-16 19:00N 49°03' W 123°19'714.9
2017-Oct-16 18:30N 48°58' W 123°11'815.2
2017-Oct-16 18:00N 48°52' W 123°03'612.7
2017-Oct-16 17:30N 48°46' W 123°02'713.9
2017-Oct-16 17:00N 48°43' W 123°12'611.4
2017-Oct-16 16:30N 48°37' W 123°13'613.0
2017-Oct-16 16:00N 48°31' W 123°11'612.2
2017-Oct-16 15:30N 48°25' W 123°11'612.3
2017-Oct-16 15:00N 48°22' W 123°19'6 6.0
2017-Oct-16 14:00N 48°18' W 123°26'3 5.9
2017-Oct-16 13:30N 48°15' W 123°28'3 5.1
2017-Oct-16 13:00N 48°14' W 123°31'3 6.1
2017-Oct-16 12:30N 48°13' W 123°35'4 8.4
2017-Oct-16 12:00N 48°14' W 123°42'3 6.8
2017-Oct-16 11:30N 48°13' W 123°47'4 8.8
2017-Oct-16 11:00N 48°13' W 123°53'510.3
2017-Oct-16 10:30N 48°15' W 124°01'510.7
2017-Oct-16 10:00N 48°17' W 124°08'510.5
2017-Oct-16 09:30N 48°20' W 124°15'611.3
2017-Oct-16 09:00N 48°22' W 124°23'510.9
2017-Oct-16 08:30N 48°24' W 124°30'510.8
2017-Oct-16 08:00N 48°27' W 124°38'4 8.5
2017-Oct-16 07:30N 48°29' W 124°43'5 8.9
2017-Oct-16 06:58N 48°29' W 124°51'4 9.2
2017-Oct-16 06:29N 48°28' W 124°57'510.8
2017-Oct-16 06:00N 48°28' W 125°05'510.8
2017-Oct-16 05:30N 48°27' W 125°13'510.6
2017-Oct-16 05:00N 48°27' W 125°21'5 9.8
2017-Oct-16 04:30N 48°27' W 125°28'510.6
2017-Oct-16 04:00N 48°26' W 125°36'612.5
2017-Oct-16 03:30N 48°26' W 125°46'612.3
2017-Oct-16 03:00N 48°25' W 125°55'612.4
2017-Oct-16 02:30N 48°24' W 126°04'612.5
2017-Oct-16 02:00N 48°23' W 126°13'5 8.3
2017-Oct-16 01:28N 48°22' W 126°20'  
Track history (hours):
 
Tides and Currents Weather Stations Pressure Air Temp Water Temp Dewpoint Dewpoint Depression Visibility Wind Speed Wind Dir Waves Ship Positions

Eagle Arrow

Last reported at 2017-Oct-17 05:29 UTC. Time now 2017-Oct-17 05:48 UTC.
Position N 49°08' W 123°51'.

Length 199 m; draft 7.1 m.

Type: Cargo ship. MMSI: 353414000.

Date/timePositionNaut miles runAvg speedWind from/ knotsBaromVisibWave heightAir tempDewpointWater temp
2017-Oct-17 05:29N 49°08' W 123°51'0 0.0
2017-Oct-17 04:56N 49°08' W 123°51'0 0.0
2017-Oct-17 04:29N 49°08' W 123°51'0 0.0
2017-Oct-17 03:59N 49°08' W 123°51'0 0.0
2017-Oct-17 02:59N 49°08' W 123°51'0 0.0
2017-Oct-17 02:29N 49°08' W 123°51'0 0.0
2017-Oct-17 01:59N 49°08' W 123°51'0 0.0
2017-Oct-17 01:23N 49°08' W 123°51'0 0.0
2017-Oct-17 00:59N 49°08' W 123°51'0 0.0
2017-Oct-17 00:29N 49°08' W 123°51'0 0.0
2017-Oct-16 23:59N 49°08' W 123°51'0 0.0
2017-Oct-16 23:29N 49°08' W 123°51'0 0.0
2017-Oct-16 22:35N 49°08' W 123°51'0 0.0
2017-Oct-16 22:29N 49°08' W 123°51'0 0.0
2017-Oct-16 21:59N 49°08' W 123°51'0 1.0
2017-Oct-16 21:30N 49°09' W 123°51'2 3.8
2017-Oct-16 21:00N 49°10' W 123°53'4 8.3
2017-Oct-16 20:30N 49°13' W 123°49'714.5
2017-Oct-16 20:00N 49°12' W 123°38'815.2
2017-Oct-16 19:30N 49°07' W 123°28'715.0
2017-Oct-16 19:00N 49°03' W 123°19'714.9
2017-Oct-16 18:30N 48°58' W 123°11'815.2
2017-Oct-16 18:00N 48°52' W 123°03'612.7
2017-Oct-16 17:30N 48°46' W 123°02'713.9
2017-Oct-16 17:00N 48°43' W 123°12'611.4
2017-Oct-16 16:30N 48°37' W 123°13'613.0
2017-Oct-16 16:00N 48°31' W 123°11'612.2
2017-Oct-16 15:30N 48°25' W 123°11'612.3
2017-Oct-16 15:00N 48°22' W 123°19'6 6.0
2017-Oct-16 14:00N 48°18' W 123°26'3 5.9
2017-Oct-16 13:30N 48°15' W 123°28'3 5.1
2017-Oct-16 13:00N 48°14' W 123°31'3 6.1
2017-Oct-16 12:30N 48°13' W 123°35'4 8.4
2017-Oct-16 12:00N 48°14' W 123°42'3 6.8
2017-Oct-16 11:30N 48°13' W 123°47'4 8.8
2017-Oct-16 11:00N 48°13' W 123°53'510.3
2017-Oct-16 10:30N 48°15' W 124°01'510.7
2017-Oct-16 10:00N 48°17' W 124°08'510.5
2017-Oct-16 09:30N 48°20' W 124°15'611.3
2017-Oct-16 09:00N 48°22' W 124°23'510.9
2017-Oct-16 08:30N 48°24' W 124°30'510.8
2017-Oct-16 08:00N 48°27' W 124°38'4 8.5
2017-Oct-16 07:30N 48°29' W 124°43'5 8.9
2017-Oct-16 06:58N 48°29' W 124°51'4 9.2
2017-Oct-16 06:29N 48°28' W 124°57'510.8
2017-Oct-16 06:00N 48°28' W 125°05'510.8
2017-Oct-16 05:30N 48°27' W 125°13'510.6
2017-Oct-16 05:00N 48°27' W 125°21'5 9.8
2017-Oct-16 04:30N 48°27' W 125°28'510.6
2017-Oct-16 04:00N 48°26' W 125°36'612.5
2017-Oct-16 03:30N 48°26' W 125°46'612.3
2017-Oct-16 03:00N 48°25' W 125°55'612.4
2017-Oct-16 02:30N 48°24' W 126°04'612.5
2017-Oct-16 02:00N 48°23' W 126°13'5 8.3
2017-Oct-16 01:28N 48°22' W 126°20'  

Dump ship's entire track history